Archer, Illinois
Current Conditions -  °F | °C
As of 10:52 PM on Tuesday 21 Oct 2014 (Local Time) from KSPI Reporting Station
Clear Clear  
Wind Chill: 42°   Ceiling: Unl
Heat Index: 46°   Visibility: 10mi
Dew Point: 41°   Wind: 7mph
Humidity: 83%   Direction: 80°E
Pressure: 30.24"   Gusts: NA
Location:  39.854°N, 89.6295°W
Report Text: KSPI 220352Z AUTO 08006KT 10SM CLR 08/05 A3024 RMK AO2 SLP243 T00780050
Loading
Personal Weather Stations






























Interactive Weather Map
Tropical Storm Tracking
New forecast layout! Learn more

10-Day Weather Forecast

Advertisements
Track Severe Weather on mobile